sensor_id;sensor_type;location;lat;lon;timestamp;P1;durP1;ratioP1;P2;durP2;ratioP2
22015;SDS011;64992;51.698;-0.292;2024-03-08T00:00:32;78.95;;;51.33;;
22015;SDS011;64992;51.698;-0.292;2024-03-08T00:02:58;92.18;;;54.28;;
22015;SDS011;64992;51.698;-0.292;2024-03-08T00:05:26;84.53;;;53.25;;
22015;SDS011;64992;51.698;-0.292;2024-03-08T00:07:52;83.30;;;50.45;;
22015;SDS011;64992;51.698;-0.292;2024-03-08T00:10:18;83.80;;;52.10;;
22015;SDS011;64992;51.698;-0.292;2024-03-08T00:12:46;91.53;;;53.38;;
22015;SDS011;64992;51.698;-0.292;2024-03-08T00:15:13;90.20;;;54.35;;
22015;SDS011;64992;51.698;-0.292;2024-03-08T00:17:42;89.32;;;53.05;;
22015;SDS011;64992;51.698;-0.292;2024-03-08T00:20:09;81.88;;;52.47;;
22015;SDS011;64992;51.698;-0.292;2024-03-08T00:22:36;89.68;;;52.65;;
22015;SDS011;64992;51.698;-0.292;2024-03-08T00:25:05;80.95;;;52.15;;
22015;SDS011;64992;51.698;-0.292;2024-03-08T00:27:33;91.63;;;54.42;;
22015;SDS011;64992;51.698;-0.292;2024-03-08T00:30:00;94.05;;;55.60;;
22015;SDS011;64992;51.698;-0.292;2024-03-08T00:32:26;90.00;;;54.17;;
22015;SDS011;64992;51.698;-0.292;2024-03-08T00:34:55;89.97;;;54.65;;
22015;SDS011;64992;51.698;-0.292;2024-03-08T00:37:21;93.38;;;54.65;;
22015;SDS011;64992;51.698;-0.292;2024-03-08T00:39:51;98.07;;;55.30;;
22015;SDS011;64992;51.698;-0.292;2024-03-08T00:42:17;93.68;;;54.58;;
22015;SDS011;64992;51.698;-0.292;2024-03-08T00:44:44;93.22;;;57.05;;
22015;SDS011;64992;51.698;-0.292;2024-03-08T00:47:10;94.03;;;55.85;;
22015;SDS011;64992;51.698;-0.292;2024-03-08T00:49:36;92.45;;;52.25;;
22015;SDS011;64992;51.698;-0.292;2024-03-08T00:52:03;94.72;;;55.60;;
22015;SDS011;64992;51.698;-0.292;2024-03-08T00:54:32;95.43;;;55.70;;
22015;SDS011;64992;51.698;-0.292;2024-03-08T00:56:58;86.70;;;54.00;;
22015;SDS011;64992;51.698;-0.292;2024-03-08T00:59:27;101.55;;;56.05;;
22015;SDS011;64992;51.698;-0.292;2024-03-08T01:01:53;96.15;;;56.15;;
22015;SDS011;64992;51.698;-0.292;2024-03-08T01:04:20;96.18;;;55.78;;
22015;SDS011;64992;51.698;-0.292;2024-03-08T01:06:46;92.80;;;55.05;;
22015;SDS011;64992;51.698;-0.292;2024-03-08T01:09:13;99.93;;;56.95;;
22015;SDS011;64992;51.698;-0.292;2024-03-08T01:11:39;99.95;;;54.08;;
22015;SDS011;64992;51.698;-0.292;2024-03-08T01:14:07;95.88;;;56.83;;
22015;SDS011;64992;51.698;-0.292;2024-03-08T01:16:33;95.55;;;58.22;;
22015;SDS011;64992;51.698;-0.292;2024-03-08T01:18:59;101.40;;;58.58;;
22015;SDS011;64992;51.698;-0.292;2024-03-08T01:21:25;93.22;;;58.72;;
22015;SDS011;64992;51.698;-0.292;2024-03-08T01:23:51;99.32;;;59.40;;
22015;SDS011;64992;51.698;-0.292;2024-03-08T01:26:17;96.50;;;57.65;;
22015;SDS011;64992;51.698;-0.292;2024-03-08T01:28:43;90.88;;;58.83;;
22015;SDS011;64992;51.698;-0.292;2024-03-08T01:31:09;97.97;;;59.63;;
22015;SDS011;64992;51.698;-0.292;2024-03-08T01:33:35;86.45;;;55.78;;
22015;SDS011;64992;51.698;-0.292;2024-03-08T01:36:01;105.60;;;60.83;;
22015;SDS011;64992;51.698;-0.292;2024-03-08T01:38:27;95.80;;;58.67;;
22015;SDS011;64992;51.698;-0.292;2024-03-08T01:40:53;109.82;;;60.45;;
22015;SDS011;64992;51.698;-0.292;2024-03-08T01:45:45;91.13;;;57.20;;
22015;SDS011;64992;51.698;-0.292;2024-03-08T01:48:11;90.47;;;57.35;;
22015;SDS011;64992;51.698;-0.292;2024-03-08T01:50:38;88.57;;;57.40;;
22015;SDS011;64992;51.698;-0.292;2024-03-08T01:53:04;95.13;;;59.03;;
22015;SDS011;64992;51.698;-0.292;2024-03-08T01:55:31;93.93;;;55.88;;
22015;SDS011;64992;51.698;-0.292;2024-03-08T01:57:58;87.43;;;56.53;;
22015;SDS011;64992;51.698;-0.292;2024-03-08T02:00:24;90.18;;;54.85;;
22015;SDS011;64992;51.698;-0.292;2024-03-08T02:02:51;95.80;;;54.97;;
22015;SDS011;64992;51.698;-0.292;2024-03-08T02:05:19;85.72;;;52.08;;
22015;SDS011;64992;51.698;-0.292;2024-03-08T02:07:45;88.45;;;53.75;;
22015;SDS011;64992;51.698;-0.292;2024-03-08T02:10:12;88.15;;;54.80;;
22015;SDS011;64992;51.698;-0.292;2024-03-08T02:12:38;88.30;;;55.72;;
22015;SDS011;64992;51.698;-0.292;2024-03-08T02:15:04;97.65;;;56.78;;
22015;SDS011;64992;51.698;-0.292;2024-03-08T02:17:34;89.18;;;55.00;;
22015;SDS011;64992;51.698;-0.292;2024-03-08T02:20:00;88.38;;;52.60;;
22015;SDS011;64992;51.698;-0.292;2024-03-08T02:22:30;90.88;;;54.70;;
22015;SDS011;64992;51.698;-0.292;2024-03-08T02:24:59;94.07;;;53.08;;
22015;SDS011;64992;51.698;-0.292;2024-03-08T02:27:26;88.50;;;52.72;;
22015;SDS011;64992;51.698;-0.292;2024-03-08T02:29:56;95.20;;;53.38;;
22015;SDS011;64992;51.698;-0.292;2024-03-08T02:32:22;83.80;;;52.22;;
22015;SDS011;64992;51.698;-0.292;2024-03-08T02:34:49;85.70;;;51.83;;
22015;SDS011;64992;51.698;-0.292;2024-03-08T02:37:15;85.82;;;49.97;;
22015;SDS011;64992;51.698;-0.292;2024-03-08T02:39:41;82.63;;;51.05;;
22015;SDS011;64992;51.698;-0.292;2024-03-08T02:42:07;90.65;;;51.17;;
22015;SDS011;64992;51.698;-0.292;2024-03-08T02:44:33;89.90;;;53.38;;
22015;SDS011;64992;51.698;-0.292;2024-03-08T02:46:59;84.25;;;50.70;;
22015;SDS011;64992;51.698;-0.292;2024-03-08T02:49:26;82.47;;;49.25;;
22015;SDS011;64992;51.698;-0.292;2024-03-08T02:51:53;79.97;;;49.28;;
22015;SDS011;64992;51.698;-0.292;2024-03-08T02:54:19;83.65;;;48.72;;
22015;SDS011;64992;51.698;-0.292;2024-03-08T02:56:45;85.78;;;49.20;;
22015;SDS011;64992;51.698;-0.292;2024-03-08T02:59:15;86.65;;;49.50;;
22015;SDS011;64992;51.698;-0.292;2024-03-08T03:01:42;78.55;;;50.30;;
22015;SDS011;64992;51.698;-0.292;2024-03-08T03:04:08;77.57;;;48.97;;
22015;SDS011;64992;51.698;-0.292;2024-03-08T03:06:34;85.82;;;51.13;;
22015;SDS011;64992;51.698;-0.292;2024-03-08T03:09:00;88.65;;;51.30;;
22015;SDS011;64992;51.698;-0.292;2024-03-08T03:11:26;83.65;;;51.45;;
22015;SDS011;64992;51.698;-0.292;2024-03-08T03:13:53;86.18;;;50.22;;
22015;SDS011;64992;51.698;-0.292;2024-03-08T03:16:19;86.20;;;49.63;;
22015;SDS011;64992;51.698;-0.292;2024-03-08T03:18:46;87.63;;;47.75;;
22015;SDS011;64992;51.698;-0.292;2024-03-08T03:21:12;86.25;;;48.92;;
22015;SDS011;64992;51.698;-0.292;2024-03-08T03:23:39;87.18;;;48.70;;
22015;SDS011;64992;51.698;-0.292;2024-03-08T03:26:06;82.47;;;50.08;;
22015;SDS011;64992;51.698;-0.292;2024-03-08T03:28:32;76.75;;;47.85;;
22015;SDS011;64992;51.698;-0.292;2024-03-08T03:30:59;80.97;;;47.45;;
22015;SDS011;64992;51.698;-0.292;2024-03-08T03:33:25;87.55;;;49.45;;
22015;SDS011;64992;51.698;-0.292;2024-03-08T03:35:51;87.43;;;49.42;;
22015;SDS011;64992;51.698;-0.292;2024-03-08T03:38:17;94.43;;;49.42;;
22015;SDS011;64992;51.698;-0.292;2024-03-08T03:40:44;82.82;;;47.72;;
22015;SDS011;64992;51.698;-0.292;2024-03-08T03:43:11;88.22;;;48.20;;
22015;SDS011;64992;51.698;-0.292;2024-03-08T03:45:38;87.32;;;48.05;;
22015;SDS011;64992;51.698;-0.292;2024-03-08T03:48:06;80.15;;;47.63;;
22015;SDS011;64992;51.698;-0.292;2024-03-08T03:50:34;87.97;;;50.45;;
22015;SDS011;64992;51.698;-0.292;2024-03-08T03:53:00;84.88;;;46.83;;
22015;SDS011;64992;51.698;-0.292;2024-03-08T03:55:27;82.13;;;45.90;;
22015;SDS011;64992;51.698;-0.292;2024-03-08T03:57:53;87.47;;;47.78;;
22015;SDS011;64992;51.698;-0.292;2024-03-08T04:00:19;97.47;;;50.92;;
22015;SDS011;64992;51.698;-0.292;2024-03-08T04:02:45;83.32;;;47.28;;
22015;SDS011;64992;51.698;-0.292;2024-03-08T04:05:11;82.45;;;48.92;;
22015;SDS011;64992;51.698;-0.292;2024-03-08T04:07:38;87.30;;;48.58;;
22015;SDS011;64992;51.698;-0.292;2024-03-08T04:10:05;90.55;;;49.45;;
22015;SDS011;64992;51.698;-0.292;2024-03-08T04:12:32;89.30;;;49.75;;
22015;SDS011;64992;51.698;-0.292;2024-03-08T04:14:58;78.50;;;46.22;;
22015;SDS011;64992;51.698;-0.292;2024-03-08T04:17:24;87.55;;;49.90;;
22015;SDS011;64992;51.698;-0.292;2024-03-08T04:19:50;86.90;;;49.10;;
22015;SDS011;64992;51.698;-0.292;2024-03-08T04:22:16;85.22;;;46.50;;
22015;SDS011;64992;51.698;-0.292;2024-03-08T04:24:45;86.38;;;48.75;;
22015;SDS011;64992;51.698;-0.292;2024-03-08T04:27:12;85.13;;;48.50;;
22015;SDS011;64992;51.698;-0.292;2024-03-08T04:29:39;87.32;;;47.95;;
22015;SDS011;64992;51.698;-0.292;2024-03-08T04:32:05;88.10;;;47.47;;
22015;SDS011;64992;51.698;-0.292;2024-03-08T04:34:33;88.25;;;50.47;;
22015;SDS011;64992;51.698;-0.292;2024-03-08T04:37:02;92.68;;;49.40;;
22015;SDS011;64992;51.698;-0.292;2024-03-08T04:39:29;87.45;;;47.85;;
22015;SDS011;64992;51.698;-0.292;2024-03-08T04:42:00;90.25;;;47.60;;
22015;SDS011;64992;51.698;-0.292;2024-03-08T04:44:36;87.18;;;50.28;;
22015;SDS011;64992;51.698;-0.292;2024-03-08T04:47:02;80.47;;;47.30;;
22015;SDS011;64992;51.698;-0.292;2024-03-08T04:49:31;88.25;;;49.78;;
22015;SDS011;64992;51.698;-0.292;2024-03-08T04:51:57;88.20;;;50.08;;
22015;SDS011;64992;51.698;-0.292;2024-03-08T04:54:23;77.70;;;48.80;;
22015;SDS011;64992;51.698;-0.292;2024-03-08T04:56:49;92.47;;;50.25;;
22015;SDS011;64992;51.698;-0.292;2024-03-08T04:59:15;86.90;;;49.92;;
22015;SDS011;64992;51.698;-0.292;2024-03-08T05:01:41;88.93;;;50.95;;
22015;SDS011;64992;51.698;-0.292;2024-03-08T05:04:08;86.18;;;48.58;;
22015;SDS011;64992;51.698;-0.292;2024-03-08T05:06:34;86.03;;;52.40;;
22015;SDS011;64992;51.698;-0.292;2024-03-08T05:09:01;87.53;;;51.78;;
22015;SDS011;64992;51.698;-0.292;2024-03-08T05:11:47;89.20;;;52.55;;
22015;SDS011;64992;51.698;-0.292;2024-03-08T05:14:13;94.43;;;52.80;;
22015;SDS011;64992;51.698;-0.292;2024-03-08T05:16:45;93.57;;;53.28;;
22015;SDS011;64992;51.698;-0.292;2024-03-08T05:19:17;89.20;;;50.78;;
22015;SDS011;64992;51.698;-0.292;2024-03-08T05:21:48;101.30;;;52.95;;
22015;SDS011;64992;51.698;-0.292;2024-03-08T05:24:14;99.25;;;52.72;;
22015;SDS011;64992;51.698;-0.292;2024-03-08T05:26:40;94.43;;;53.45;;
22015;SDS011;64992;51.698;-0.292;2024-03-08T05:29:07;95.18;;;55.80;;
22015;SDS011;64992;51.698;-0.292;2024-03-08T05:31:48;97.45;;;55.17;;
22015;SDS011;64992;51.698;-0.292;2024-03-08T05:34:15;105.28;;;53.97;;
22015;SDS011;64992;51.698;-0.292;2024-03-08T05:36:41;94.78;;;53.10;;
22015;SDS011;64992;51.698;-0.292;2024-03-08T05:39:12;101.05;;;54.35;;
22015;SDS011;64992;51.698;-0.292;2024-03-08T05:41:38;104.22;;;54.22;;
22015;SDS011;64992;51.698;-0.292;2024-03-08T05:44:05;93.82;;;50.65;;
22015;SDS011;64992;51.698;-0.292;2024-03-08T05:46:31;96.93;;;52.80;;
22015;SDS011;64992;51.698;-0.292;2024-03-08T05:48:57;97.72;;;51.67;;
22015;SDS011;64992;51.698;-0.292;2024-03-08T05:51:30;101.97;;;53.33;;
22015;SDS011;64992;51.698;-0.292;2024-03-08T05:53:56;94.22;;;54.00;;
22015;SDS011;64992;51.698;-0.292;2024-03-08T05:56:23;98.93;;;53.58;;
22015;SDS011;64992;51.698;-0.292;2024-03-08T05:58:49;92.07;;;52.10;;
22015;SDS011;64992;51.698;-0.292;2024-03-08T06:01:15;91.45;;;50.25;;
22015;SDS011;64992;51.698;-0.292;2024-03-08T06:03:41;91.30;;;52.03;;
22015;SDS011;64992;51.698;-0.292;2024-03-08T06:06:12;94.20;;;52.88;;
22015;SDS011;64992;51.698;-0.292;2024-03-08T06:08:38;88.93;;;52.55;;
22015;SDS011;64992;51.698;-0.292;2024-03-08T06:11:05;97.90;;;51.47;;
22015;SDS011;64992;51.698;-0.292;2024-03-08T06:13:34;88.53;;;50.78;;
22015;SDS011;64992;51.698;-0.292;2024-03-08T06:16:00;91.32;;;50.53;;
22015;SDS011;64992;51.698;-0.292;2024-03-08T06:18:30;92.05;;;53.72;;
22015;SDS011;64992;51.698;-0.292;2024-03-08T06:20:56;87.15;;;50.95;;
22015;SDS011;64992;51.698;-0.292;2024-03-08T06:23:22;97.53;;;51.03;;
22015;SDS011;64992;51.698;-0.292;2024-03-08T06:25:48;85.05;;;50.50;;
22015;SDS011;64992;51.698;-0.292;2024-03-08T06:28:15;98.45;;;56.13;;
22015;SDS011;64992;51.698;-0.292;2024-03-08T06:30:41;92.03;;;50.38;;
22015;SDS011;64992;51.698;-0.292;2024-03-08T06:33:08;90.32;;;51.50;;
22015;SDS011;64992;51.698;-0.292;2024-03-08T06:35:34;90.78;;;50.10;;
22015;SDS011;64992;51.698;-0.292;2024-03-08T06:38:02;93.80;;;50.35;;
22015;SDS011;64992;51.698;-0.292;2024-03-08T06:40:28;91.55;;;53.47;;
22015;SDS011;64992;51.698;-0.292;2024-03-08T06:42:54;87.40;;;51.58;;
22015;SDS011;64992;51.698;-0.292;2024-03-08T06:45:20;96.35;;;52.33;;
22015;SDS011;64992;51.698;-0.292;2024-03-08T06:47:48;93.80;;;52.70;;
22015;SDS011;64992;51.698;-0.292;2024-03-08T06:50:14;100.75;;;53.08;;
22015;SDS011;64992;51.698;-0.292;2024-03-08T06:52:41;102.60;;;53.72;;
22015;SDS011;64992;51.698;-0.292;2024-03-08T06:55:11;102.65;;;54.45;;
22015;SDS011;64992;51.698;-0.292;2024-03-08T06:57:38;89.55;;;50.35;;
22015;SDS011;64992;51.698;-0.292;2024-03-08T07:00:05;96.00;;;51.10;;
22015;SDS011;64992;51.698;-0.292;2024-03-08T07:02:34;97.43;;;52.10;;
22015;SDS011;64992;51.698;-0.292;2024-03-08T07:05:00;94.38;;;53.25;;
22015;SDS011;64992;51.698;-0.292;2024-03-08T07:07:26;94.38;;;53.10;;
22015;SDS011;64992;51.698;-0.292;2024-03-08T07:09:55;87.38;;;50.08;;
22015;SDS011;64992;51.698;-0.292;2024-03-08T07:12:21;102.07;;;53.50;;
22015;SDS011;64992;51.698;-0.292;2024-03-08T07:14:48;92.00;;;50.22;;
22015;SDS011;64992;51.698;-0.292;2024-03-08T07:17:14;96.50;;;53.90;;
22015;SDS011;64992;51.698;-0.292;2024-03-08T07:19:41;98.40;;;53.75;;
22015;SDS011;64992;51.698;-0.292;2024-03-08T07:22:07;96.05;;;52.30;;
22015;SDS011;64992;51.698;-0.292;2024-03-08T07:24:34;100.03;;;51.03;;
22015;SDS011;64992;51.698;-0.292;2024-03-08T07:27:19;99.00;;;50.08;;
22015;SDS011;64992;51.698;-0.292;2024-03-08T07:29:45;85.97;;;48.97;;
22015;SDS011;64992;51.698;-0.292;2024-03-08T07:32:11;90.60;;;51.05;;
22015;SDS011;64992;51.698;-0.292;2024-03-08T07:34:46;95.80;;;49.55;;
22015;SDS011;64992;51.698;-0.292;2024-03-08T07:37:13;99.78;;;53.45;;
22015;SDS011;64992;51.698;-0.292;2024-03-08T07:39:39;97.72;;;52.35;;
22015;SDS011;64992;51.698;-0.292;2024-03-08T07:42:05;93.60;;;51.40;;
22015;SDS011;64992;51.698;-0.292;2024-03-08T07:44:31;95.63;;;50.70;;
22015;SDS011;64992;51.698;-0.292;2024-03-08T07:46:58;85.90;;;50.28;;
22015;SDS011;64992;51.698;-0.292;2024-03-08T07:49:24;95.28;;;49.78;;
22015;SDS011;64992;51.698;-0.292;2024-03-08T07:51:50;89.90;;;50.63;;
22015;SDS011;64992;51.698;-0.292;2024-03-08T07:54:17;95.38;;;48.47;;
22015;SDS011;64992;51.698;-0.292;2024-03-08T07:56:43;85.00;;;49.60;;
22015;SDS011;64992;51.698;-0.292;2024-03-08T07:59:09;90.43;;;48.88;;
22015;SDS011;64992;51.698;-0.292;2024-03-08T08:01:37;91.22;;;49.40;;
22015;SDS011;64992;51.698;-0.292;2024-03-08T08:04:03;86.95;;;47.50;;
22015;SDS011;64992;51.698;-0.292;2024-03-08T08:06:29;79.95;;;48.65;;
22015;SDS011;64992;51.698;-0.292;2024-03-08T08:08:58;88.03;;;47.10;;
22015;SDS011;64992;51.698;-0.292;2024-03-08T08:11:27;90.80;;;46.95;;
22015;SDS011;64992;51.698;-0.292;2024-03-08T08:13:54;90.68;;;49.72;;
22015;SDS011;64992;51.698;-0.292;2024-03-08T08:16:20;89.28;;;48.80;;
22015;SDS011;64992;51.698;-0.292;2024-03-08T08:18:46;90.95;;;49.08;;
22015;SDS011;64992;51.698;-0.292;2024-03-08T08:21:13;84.57;;;48.92;;
22015;SDS011;64992;51.698;-0.292;2024-03-08T08:23:39;81.20;;;46.63;;
22015;SDS011;64992;51.698;-0.292;2024-03-08T08:26:05;95.32;;;48.63;;
22015;SDS011;64992;51.698;-0.292;2024-03-08T08:28:32;78.25;;;45.30;;
22015;SDS011;64992;51.698;-0.292;2024-03-08T08:30:58;82.05;;;48.15;;
22015;SDS011;64992;51.698;-0.292;2024-03-08T08:33:25;78.57;;;44.08;;
22015;SDS011;64992;51.698;-0.292;2024-03-08T08:35:51;82.50;;;47.25;;
22015;SDS011;64992;51.698;-0.292;2024-03-08T08:38:19;72.95;;;44.97;;
22015;SDS011;64992;51.698;-0.292;2024-03-08T08:40:45;80.07;;;45.97;;
22015;SDS011;64992;51.698;-0.292;2024-03-08T08:43:12;71.85;;;45.47;;
22015;SDS011;64992;51.698;-0.292;2024-03-08T08:45:39;83.80;;;47.40;;
22015;SDS011;64992;51.698;-0.292;2024-03-08T08:48:05;82.57;;;44.78;;
22015;SDS011;64992;51.698;-0.292;2024-03-08T08:50:31;73.28;;;42.22;;
22015;SDS011;64992;51.698;-0.292;2024-03-08T08:52:57;80.47;;;44.40;;
22015;SDS011;64992;51.698;-0.292;2024-03-08T08:55:24;77.57;;;46.55;;
22015;SDS011;64992;51.698;-0.292;2024-03-08T08:57:51;65.10;;;41.13;;
22015;SDS011;64992;51.698;-0.292;2024-03-08T09:00:17;77.57;;;45.13;;
22015;SDS011;64992;51.698;-0.292;2024-03-08T09:02:45;69.57;;;44.47;;
22015;SDS011;64992;51.698;-0.292;2024-03-08T09:05:11;77.68;;;46.80;;
22015;SDS011;64992;51.698;-0.292;2024-03-08T09:07:39;76.57;;;43.92;;
22015;SDS011;64992;51.698;-0.292;2024-03-08T09:10:06;74.30;;;46.35;;
22015;SDS011;64992;51.698;-0.292;2024-03-08T09:12:34;73.72;;;43.90;;
22015;SDS011;64992;51.698;-0.292;2024-03-08T09:15:00;66.55;;;42.63;;
22015;SDS011;64992;51.698;-0.292;2024-03-08T09:17:26;65.68;;;43.08;;
22015;SDS011;64992;51.698;-0.292;2024-03-08T09:19:52;69.22;;;43.88;;
22015;SDS011;64992;51.698;-0.292;2024-03-08T09:22:19;68.38;;;42.08;;
22015;SDS011;64992;51.698;-0.292;2024-03-08T09:24:45;70.47;;;42.83;;
22015;SDS011;64992;51.698;-0.292;2024-03-08T09:27:11;69.63;;;44.67;;
22015;SDS011;64992;51.698;-0.292;2024-03-08T09:29:38;73.30;;;43.33;;
22015;SDS011;64992;51.698;-0.292;2024-03-08T09:32:05;72.85;;;42.15;;
22015;SDS011;64992;51.698;-0.292;2024-03-08T09:34:32;62.88;;;40.53;;
22015;SDS011;64992;51.698;-0.292;2024-03-08T09:36:58;73.97;;;43.50;;
22015;SDS011;64992;51.698;-0.292;2024-03-08T09:39:24;63.15;;;40.15;;
22015;SDS011;64992;51.698;-0.292;2024-03-08T09:41:50;68.30;;;41.17;;
22015;SDS011;64992;51.698;-0.292;2024-03-08T09:44:16;65.68;;;40.88;;
22015;SDS011;64992;51.698;-0.292;2024-03-08T09:46:42;63.53;;;40.50;;
22015;SDS011;64992;51.698;-0.292;2024-03-08T09:49:09;70.25;;;41.67;;
22015;SDS011;64992;51.698;-0.292;2024-03-08T09:51:36;67.15;;;41.30;;
22015;SDS011;64992;51.698;-0.292;2024-03-08T09:54:06;60.13;;;41.58;;
22015;SDS011;64992;51.698;-0.292;2024-03-08T09:56:33;69.50;;;43.00;;
22015;SDS011;64992;51.698;-0.292;2024-03-08T09:59:00;60.28;;;40.60;;
22015;SDS011;64992;51.698;-0.292;2024-03-08T10:01:45;63.15;;;42.47;;
22015;SDS011;64992;51.698;-0.292;2024-03-08T10:04:11;61.42;;;38.97;;
22015;SDS011;64992;51.698;-0.292;2024-03-08T10:06:39;61.65;;;40.45;;
22015;SDS011;64992;51.698;-0.292;2024-03-08T10:09:05;56.83;;;37.83;;
22015;SDS011;64992;51.698;-0.292;2024-03-08T10:11:33;51.97;;;36.92;;
22015;SDS011;64992;51.698;-0.292;2024-03-08T10:14:00;57.45;;;38.88;;
22015;SDS011;64992;51.698;-0.292;2024-03-08T10:16:29;56.22;;;37.10;;
22015;SDS011;64992;51.698;-0.292;2024-03-08T10:18:58;59.33;;;35.70;;
22015;SDS011;64992;51.698;-0.292;2024-03-08T10:21:25;55.70;;;35.75;;
22015;SDS011;64992;51.698;-0.292;2024-03-08T10:23:52;55.35;;;34.80;;
22015;SDS011;64992;51.698;-0.292;2024-03-08T10:26:18;51.55;;;35.22;;
22015;SDS011;64992;51.698;-0.292;2024-03-08T10:28:46;46.05;;;33.90;;
22015;SDS011;64992;51.698;-0.292;2024-03-08T10:31:16;57.85;;;35.63;;
22015;SDS011;64992;51.698;-0.292;2024-03-08T10:33:42;54.90;;;35.85;;
22015;SDS011;64992;51.698;-0.292;2024-03-08T10:36:09;52.15;;;33.45;;
22015;SDS011;64992;51.698;-0.292;2024-03-08T10:38:39;51.17;;;31.95;;
22015;SDS011;64992;51.698;-0.292;2024-03-08T10:41:06;42.15;;;31.40;;
22015;SDS011;64992;51.698;-0.292;2024-03-08T10:43:36;49.50;;;32.58;;
22015;SDS011;64992;51.698;-0.292;2024-03-08T10:48:44;45.28;;;32.25;;
22015;SDS011;64992;51.698;-0.292;2024-03-08T10:51:14;45.03;;;33.20;;
22015;SDS011;64992;51.698;-0.292;2024-03-08T10:53:40;46.28;;;31.02;;
22015;SDS011;64992;51.698;-0.292;2024-03-08T10:56:07;50.45;;;30.95;;
22015;SDS011;64992;51.698;-0.292;2024-03-08T10:58:35;39.85;;;29.10;;
22015;SDS011;64992;51.698;-0.292;2024-03-08T11:01:02;44.67;;;28.92;;
22015;SDS011;64992;51.698;-0.292;2024-03-08T11:06:08;43.08;;;29.42;;
22015;SDS011;64992;51.698;-0.292;2024-03-08T11:08:36;46.95;;;32.03;;
22015;SDS011;64992;51.698;-0.292;2024-03-08T11:11:04;43.60;;;31.17;;
22015;SDS011;64992;51.698;-0.292;2024-03-08T11:13:39;39.33;;;28.92;;
22015;SDS011;64992;51.698;-0.292;2024-03-08T11:16:09;37.20;;;26.48;;
22015;SDS011;64992;51.698;-0.292;2024-03-08T11:18:36;37.08;;;26.48;;
22015;SDS011;64992;51.698;-0.292;2024-03-08T11:21:07;36.88;;;26.05;;
22015;SDS011;64992;51.698;-0.292;2024-03-08T11:23:37;36.42;;;25.10;;
22015;SDS011;64992;51.698;-0.292;2024-03-08T11:26:26;42.78;;;27.60;;
22015;SDS011;64992;51.698;-0.292;2024-03-08T11:28:51;37.53;;;25.75;;
22015;SDS011;64992;51.698;-0.292;2024-03-08T11:33:47;31.95;;;25.17;;
22015;SDS011;64992;51.698;-0.292;2024-03-08T11:36:21;36.83;;;25.83;;
22015;SDS011;64992;51.698;-0.292;2024-03-08T11:38:48;35.13;;;26.15;;
22015;SDS011;64992;51.698;-0.292;2024-03-08T11:41:16;42.15;;;28.60;;
22015;SDS011;64992;51.698;-0.292;2024-03-08T11:43:44;40.33;;;28.38;;
22015;SDS011;64992;51.698;-0.292;2024-03-08T11:46:10;40.20;;;28.33;;
22015;SDS011;64992;51.698;-0.292;2024-03-08T11:48:39;35.22;;;27.52;;
22015;SDS011;64992;51.698;-0.292;2024-03-08T11:51:09;39.40;;;28.73;;
22015;SDS011;64992;51.698;-0.292;2024-03-08T11:53:37;38.70;;;26.98;;
22015;SDS011;64992;51.698;-0.292;2024-03-08T11:58:32;37.33;;;27.20;;
22015;SDS011;64992;51.698;-0.292;2024-03-08T12:01:04;40.10;;;28.38;;
22015;SDS011;64992;51.698;-0.292;2024-03-08T12:03:31;45.95;;;29.40;;
22015;SDS011;64992;51.698;-0.292;2024-03-08T12:06:00;42.20;;;29.75;;
22015;SDS011;64992;51.698;-0.292;2024-03-08T12:08:28;39.05;;;28.40;;
22015;SDS011;64992;51.698;-0.292;2024-03-08T12:10:56;34.67;;;27.50;;
22015;SDS011;64992;51.698;-0.292;2024-03-08T12:13:28;35.28;;;27.10;;
22015;SDS011;64992;51.698;-0.292;2024-03-08T12:15:55;40.30;;;26.80;;
22015;SDS011;64992;51.698;-0.292;2024-03-08T12:18:23;34.92;;;26.13;;
22015;SDS011;64992;51.698;-0.292;2024-03-08T12:20:49;37.20;;;26.25;;
22015;SDS011;64992;51.698;-0.292;2024-03-08T12:23:15;33.53;;;25.38;;
22015;SDS011;64992;51.698;-0.292;2024-03-08T12:25:44;38.67;;;25.10;;
22015;SDS011;64992;51.698;-0.292;2024-03-08T12:28:11;31.90;;;25.65;;
22015;SDS011;64992;51.698;-0.292;2024-03-08T12:30:51;44.65;;;26.20;;
22015;SDS011;64992;51.698;-0.292;2024-03-08T12:33:19;31.08;;;24.30;;
22015;SDS011;64992;51.698;-0.292;2024-03-08T12:35:54;39.00;;;25.67;;
22015;SDS011;64992;51.698;-0.292;2024-03-08T12:38:23;30.05;;;24.30;;
22015;SDS011;64992;51.698;-0.292;2024-03-08T12:40:56;38.63;;;26.23;;
22015;SDS011;64992;51.698;-0.292;2024-03-08T12:43:23;33.15;;;24.52;;
22015;SDS011;64992;51.698;-0.292;2024-03-08T12:45:49;34.75;;;25.05;;
22015;SDS011;64992;51.698;-0.292;2024-03-08T12:48:16;34.25;;;25.88;;
22015;SDS011;64992;51.698;-0.292;2024-03-08T12:50:42;30.08;;;22.85;;
22015;SDS011;64992;51.698;-0.292;2024-03-08T12:53:10;31.00;;;24.77;;
22015;SDS011;64992;51.698;-0.292;2024-03-08T12:55:36;34.35;;;24.05;;
22015;SDS011;64992;51.698;-0.292;2024-03-08T12:58:03;34.13;;;25.33;;
22015;SDS011;64992;51.698;-0.292;2024-03-08T13:00:32;31.67;;;24.17;;
22015;SDS011;64992;51.698;-0.292;2024-03-08T13:03:01;34.28;;;25.38;;
22015;SDS011;64992;51.698;-0.292;2024-03-08T13:05:27;39.72;;;27.70;;
22015;SDS011;64992;51.698;-0.292;2024-03-08T13:07:54;34.90;;;27.13;;
22015;SDS011;64992;51.698;-0.292;2024-03-08T13:10:22;36.17;;;27.17;;
22015;SDS011;64992;51.698;-0.292;2024-03-08T13:12:48;38.17;;;28.05;;
22015;SDS011;64992;51.698;-0.292;2024-03-08T13:15:14;42.88;;;29.58;;
22015;SDS011;64992;51.698;-0.292;2024-03-08T13:17:45;37.92;;;27.65;;
22015;SDS011;64992;51.698;-0.292;2024-03-08T13:20:13;35.38;;;26.08;;
22015;SDS011;64992;51.698;-0.292;2024-03-08T13:22:43;38.75;;;25.95;;
22015;SDS011;64992;51.698;-0.292;2024-03-08T13:25:09;38.13;;;24.67;;
22015;SDS011;64992;51.698;-0.292;2024-03-08T13:27:41;34.00;;;24.58;;
22015;SDS011;64992;51.698;-0.292;2024-03-08T13:30:14;36.42;;;26.80;;
22015;SDS011;64992;51.698;-0.292;2024-03-08T13:32:43;36.47;;;27.02;;
22015;SDS011;64992;51.698;-0.292;2024-03-08T13:35:10;33.08;;;26.40;;
22015;SDS011;64992;51.698;-0.292;2024-03-08T13:37:42;37.85;;;26.73;;
22015;SDS011;64992;51.698;-0.292;2024-03-08T13:40:09;39.38;;;28.90;;
22015;SDS011;64992;51.698;-0.292;2024-03-08T13:42:39;36.83;;;28.10;;
22015;SDS011;64992;51.698;-0.292;2024-03-08T13:45:07;37.20;;;26.25;;
22015;SDS011;64992;51.698;-0.292;2024-03-08T13:47:37;43.22;;;28.08;;
22015;SDS011;64992;51.698;-0.292;2024-03-08T13:50:05;37.95;;;27.52;;
22015;SDS011;64992;51.698;-0.292;2024-03-08T13:52:32;35.92;;;28.33;;
22015;SDS011;64992;51.698;-0.292;2024-03-08T13:55:00;41.25;;;30.23;;
22015;SDS011;64992;51.698;-0.292;2024-03-08T13:57:26;40.05;;;28.92;;
22015;SDS011;64992;51.698;-0.292;2024-03-08T13:59:54;39.63;;;29.10;;
22015;SDS011;64992;51.698;-0.292;2024-03-08T14:02:20;39.17;;;29.20;;
22015;SDS011;64992;51.698;-0.292;2024-03-08T14:04:47;43.25;;;29.52;;
22015;SDS011;64992;51.698;-0.292;2024-03-08T14:07:14;40.42;;;28.02;;
22015;SDS011;64992;51.698;-0.292;2024-03-08T14:09:41;36.78;;;27.30;;
22015;SDS011;64992;51.698;-0.292;2024-03-08T14:12:08;38.33;;;26.85;;
22015;SDS011;64992;51.698;-0.292;2024-03-08T14:14:34;40.35;;;28.17;;
22015;SDS011;64992;51.698;-0.292;2024-03-08T14:17:03;36.58;;;27.13;;
22015;SDS011;64992;51.698;-0.292;2024-03-08T14:19:31;33.30;;;26.45;;
22015;SDS011;64992;51.698;-0.292;2024-03-08T14:21:57;37.17;;;26.63;;